createdAt,value
2018-05-24T00:00:03.029Z,967.09
2018-05-24T00:01:03.011Z,967.03
2018-05-24T00:02:03.010Z,967.03
2018-05-24T00:03:03.009Z,967.04
2018-05-24T00:04:03.013Z,967.02
2018-05-24T00:05:03.012Z,967.03
2018-05-24T00:06:03.017Z,967.00
2018-05-24T00:07:03.059Z,967.04
2018-05-24T00:08:03.136Z,967.05
2018-05-24T00:09:03.053Z,967.09
2018-05-24T00:10:03.027Z,967.10
2018-05-24T00:11:03.046Z,967.08
2018-05-24T00:12:03.031Z,967.11
2018-05-24T00:13:03.029Z,967.07
2018-05-24T00:14:03.046Z,967.10
2018-05-24T00:15:03.036Z,967.13
2018-05-24T00:16:03.041Z,967.13
2018-05-24T00:17:03.038Z,967.17
2018-05-24T00:18:03.044Z,967.13
2018-05-24T00:19:03.037Z,967.18
2018-05-24T00:20:03.050Z,967.15
2018-05-24T00:21:03.109Z,967.18
2018-05-24T00:22:03.073Z,967.18
2018-05-24T00:23:03.084Z,967.17
2018-05-24T00:24:03.057Z,967.17
2018-05-24T00:25:03.051Z,967.16
2018-05-24T00:26:03.056Z,967.19
2018-05-24T00:27:03.095Z,967.22
2018-05-24T00:28:03.057Z,967.18
2018-05-24T00:29:03.060Z,967.19
2018-05-24T00:30:03.065Z,967.21
2018-05-24T00:31:03.063Z,967.20
2018-05-24T00:32:03.069Z,967.17
2018-05-24T00:33:03.062Z,967.18
2018-05-24T00:34:03.075Z,967.20
2018-05-24T00:35:03.081Z,967.17
2018-05-24T00:36:03.071Z,967.14
2018-05-24T00:37:03.071Z,967.15
2018-05-24T00:38:03.074Z,967.11
2018-05-24T00:39:03.075Z,967.11
2018-05-24T00:40:03.077Z,967.08
2018-05-24T00:41:03.101Z,967.05
2018-05-24T00:42:03.086Z,967.07
2018-05-24T00:43:03.086Z,967.03
2018-05-24T00:44:03.113Z,966.99
2018-05-24T00:45:03.083Z,966.99
2018-05-24T00:46:03.091Z,966.96
2018-05-24T00:47:03.096Z,966.95
2018-05-24T00:48:03.090Z,966.95
2018-05-24T00:49:03.097Z,966.92
2018-05-24T00:50:03.115Z,966.91
2018-05-24T00:51:03.123Z,966.92
2018-05-24T00:52:03.102Z,966.92
2018-05-24T00:53:03.097Z,966.93
2018-05-24T00:54:03.104Z,966.96
2018-05-24T00:55:03.112Z,966.94
2018-05-24T00:56:03.110Z,966.93
2018-05-24T00:57:03.109Z,966.89
2018-05-24T00:58:03.122Z,966.85
2018-05-24T00:59:03.151Z,966.84
2018-05-24T01:00:03.114Z,966.86
2018-05-24T01:01:03.117Z,966.89
2018-05-24T01:02:03.131Z,966.89
2018-05-24T01:03:03.123Z,966.92
2018-05-24T01:04:03.130Z,966.89
2018-05-24T01:05:03.130Z,966.86
2018-05-24T01:06:03.129Z,966.85
2018-05-24T01:07:03.129Z,966.87
2018-05-24T01:08:03.158Z,966.83
2018-05-24T01:09:03.132Z,966.85
2018-05-24T01:10:03.134Z,966.87
2018-05-24T01:11:03.130Z,966.85
2018-05-24T01:12:03.147Z,966.81
2018-05-24T01:13:03.138Z,966.80
2018-05-24T01:14:03.142Z,966.79
2018-05-24T01:15:03.194Z,966.74
2018-05-24T01:16:03.143Z,966.79
2018-05-24T01:17:03.147Z,966.79
2018-05-24T01:18:03.177Z,966.74
2018-05-24T01:19:03.150Z,966.72
2018-05-24T01:20:03.154Z,966.71
2018-05-24T01:21:03.161Z,966.73
2018-05-24T01:22:03.158Z,966.72
2018-05-24T01:23:03.160Z,966.70
2018-05-24T01:24:03.158Z,966.73
2018-05-24T01:25:03.165Z,966.74
2018-05-24T01:26:03.168Z,966.73
2018-05-24T01:27:03.165Z,966.77
2018-05-24T01:28:03.169Z,966.77
2018-05-24T01:29:03.169Z,966.75
2018-05-24T01:30:03.178Z,966.78
2018-05-24T01:31:03.170Z,966.77
2018-05-24T01:32:03.177Z,966.78
2018-05-24T01:33:03.174Z,966.82
2018-05-24T01:34:03.181Z,966.81
2018-05-24T01:35:03.177Z,966.82
2018-05-24T01:36:03.196Z,966.85
2018-05-24T01:37:03.181Z,966.81
2018-05-24T01:38:03.191Z,966.83
2018-05-24T01:39:03.189Z,966.86
2018-05-24T01:40:03.190Z,966.92
2018-05-24T01:41:03.200Z,966.91
2018-05-24T01:42:03.190Z,966.90
2018-05-24T01:43:03.197Z,966.94
2018-05-24T01:44:03.225Z,966.94
2018-05-24T01:45:03.198Z,966.97
2018-05-24T01:46:03.196Z,966.92
2018-05-24T01:47:03.205Z,966.94
2018-05-24T01:48:03.204Z,966.91
2018-05-24T01:49:03.204Z,966.96
2018-05-24T01:50:03.206Z,967.01
2018-05-24T01:51:03.207Z,966.96
2018-05-24T01:52:03.208Z,966.98
2018-05-24T01:53:03.207Z,967.01
2018-05-24T01:54:03.212Z,966.99
2018-05-24T01:55:03.211Z,967.01
2018-05-24T01:56:03.218Z,967.00
2018-05-24T01:57:03.216Z,967.00
2018-05-24T01:58:03.235Z,966.96
2018-05-24T01:59:03.220Z,966.94
2018-05-24T02:00:03.218Z,966.91
2018-05-24T02:01:03.221Z,966.89
2018-05-24T02:02:03.223Z,966.89
2018-05-24T02:03:03.226Z,966.87
2018-05-24T02:04:03.268Z,966.89
2018-05-24T02:05:03.230Z,966.88
2018-05-24T02:06:03.287Z,966.89
2018-05-24T02:07:03.232Z,966.92
2018-05-24T02:08:03.230Z,966.89
2018-05-24T02:09:03.232Z,966.89
2018-05-24T02:10:03.235Z,966.90
2018-05-24T02:11:03.235Z,966.89
2018-05-24T02:12:03.239Z,966.88
2018-05-24T02:13:03.243Z,966.87
2018-05-24T02:14:03.241Z,966.89
2018-05-24T02:15:03.241Z,966.87
2018-05-24T02:16:03.254Z,966.89
2018-05-24T02:17:03.254Z,966.94
2018-05-24T02:18:03.287Z,966.92
2018-05-24T02:19:03.261Z,966.93
2018-05-24T02:20:03.277Z,966.97
2018-05-24T02:21:03.278Z,966.96
2018-05-24T02:22:03.258Z,967.02
2018-05-24T02:23:03.260Z,967.01
2018-05-24T02:24:03.281Z,967.01
2018-05-24T02:25:03.259Z,967.02
2018-05-24T02:26:03.262Z,967.00
2018-05-24T02:27:03.267Z,967.00
2018-05-24T02:28:03.327Z,967.04
2018-05-24T02:29:03.267Z,967.00
2018-05-24T02:30:03.264Z,967.05
2018-05-24T02:31:03.276Z,967.01
2018-05-24T02:32:03.270Z,967.00
2018-05-24T02:33:03.269Z,966.97
2018-05-24T02:34:03.273Z,966.98
2018-05-24T02:35:03.299Z,966.92
2018-05-24T02:36:03.410Z,966.94
2018-05-24T02:37:03.287Z,966.92
2018-05-24T02:38:03.300Z,966.93
2018-05-24T02:39:03.273Z,966.93
2018-05-24T02:40:03.284Z,966.92
2018-05-24T02:41:03.304Z,966.97
2018-05-24T02:42:03.279Z,966.91
2018-05-24T02:43:03.281Z,966.88
2018-05-24T02:44:03.281Z,966.84
2018-05-24T02:45:03.308Z,966.90
2018-05-24T02:46:03.283Z,966.88
2018-05-24T02:47:03.285Z,966.86
2018-05-24T02:48:03.289Z,966.86
2018-05-24T02:49:03.286Z,966.81
2018-05-24T02:50:03.291Z,966.85
2018-05-24T02:51:03.288Z,966.87
2018-05-24T02:52:03.295Z,966.83
2018-05-24T02:53:03.297Z,966.84
2018-05-24T02:54:03.314Z,966.84
2018-05-24T02:55:03.297Z,966.80
2018-05-24T02:56:03.305Z,966.79
2018-05-24T02:57:03.303Z,966.81
2018-05-24T02:58:03.325Z,966.79
2018-05-24T02:59:03.299Z,966.79
2018-05-24T03:00:03.304Z,966.82
2018-05-24T03:01:03.340Z,966.78
2018-05-24T03:02:03.306Z,966.80
2018-05-24T03:03:03.329Z,966.79
2018-05-24T03:04:03.306Z,966.75
2018-05-24T03:05:03.313Z,966.71
2018-05-24T03:06:03.319Z,966.69
2018-05-24T03:07:03.309Z,966.67
2018-05-24T03:08:03.338Z,966.62
2018-05-24T03:09:03.311Z,966.63
2018-05-24T03:10:03.335Z,966.62
2018-05-24T03:11:03.360Z,966.67
2018-05-24T03:12:03.345Z,966.65
2018-05-24T03:13:03.323Z,966.67
2018-05-24T03:14:03.325Z,966.65
2018-05-24T03:15:03.354Z,966.65
2018-05-24T03:16:03.346Z,966.67
2018-05-24T03:17:03.325Z,966.67
2018-05-24T03:18:03.340Z,966.69
2018-05-24T03:19:03.325Z,966.64
2018-05-24T03:20:03.329Z,966.62
2018-05-24T03:21:03.337Z,966.61
2018-05-24T03:22:03.326Z,966.63
2018-05-24T03:23:03.327Z,966.60
2018-05-24T03:24:03.335Z,966.62
2018-05-24T03:25:03.336Z,966.60
2018-05-24T03:26:03.334Z,966.57
2018-05-24T03:27:05.255Z,966.60
2018-05-24T03:28:03.396Z,966.54
2018-05-24T03:29:03.344Z,966.48
2018-05-24T03:30:03.371Z,966.51
2018-05-24T03:31:03.359Z,966.50
2018-05-24T03:32:03.342Z,966.43
2018-05-24T03:33:03.346Z,966.43
2018-05-24T03:34:03.340Z,966.40
2018-05-24T03:35:03.385Z,966.49
2018-05-24T03:36:03.348Z,966.49
2018-05-24T03:37:03.352Z,966.50
2018-05-24T03:38:03.353Z,966.47
2018-05-24T03:39:03.419Z,966.46
2018-05-24T03:40:03.356Z,966.46
2018-05-24T03:41:03.350Z,966.49
2018-05-24T03:42:03.351Z,966.47
2018-05-24T03:43:03.353Z,966.45
2018-05-24T03:44:03.354Z,966.46
2018-05-24T03:45:03.353Z,966.50
2018-05-24T03:46:03.373Z,966.52
2018-05-24T03:47:03.371Z,966.55
2018-05-24T03:48:03.358Z,966.53
2018-05-24T03:49:03.360Z,966.49
2018-05-24T03:50:03.359Z,966.47
2018-05-24T03:51:03.358Z,966.43
2018-05-24T03:52:03.443Z,966.39
2018-05-24T03:53:03.361Z,966.39
2018-05-24T03:54:03.371Z,966.36
2018-05-24T03:55:03.363Z,966.37
2018-05-24T03:56:03.364Z,966.34
2018-05-24T03:57:03.364Z,966.32
2018-05-24T03:58:03.366Z,966.34
2018-05-24T03:59:03.369Z,966.31
2018-05-24T04:00:03.370Z,966.32
2018-05-24T04:01:03.374Z,966.28
2018-05-24T04:02:03.371Z,966.28
2018-05-24T04:03:03.373Z,966.35
2018-05-24T04:04:03.436Z,966.39
2018-05-24T04:05:03.380Z,966.41
2018-05-24T04:06:03.379Z,966.41
2018-05-24T04:07:08.263Z,966.50
2018-05-24T04:08:03.417Z,966.54
2018-05-24T04:09:03.380Z,966.62
2018-05-24T04:10:03.379Z,966.66
2018-05-24T04:11:03.382Z,966.70
2018-05-24T04:12:03.456Z,966.72
2018-05-24T04:13:03.383Z,966.76
2018-05-24T04:14:03.381Z,966.73
2018-05-24T04:15:03.385Z,966.77
2018-05-24T04:16:04.255Z,966.76
2018-05-24T04:17:03.385Z,966.80
2018-05-24T04:18:03.401Z,966.77
2018-05-24T04:19:03.412Z,966.80
2018-05-24T04:20:03.394Z,966.83
2018-05-24T04:21:03.403Z,966.83
2018-05-24T04:22:03.450Z,966.85
2018-05-24T04:23:03.418Z,966.85
2018-05-24T04:24:04.411Z,966.88
2018-05-24T04:25:03.393Z,966.86
2018-05-24T04:26:03.395Z,966.85
2018-05-24T04:27:03.491Z,966.92
2018-05-24T04:28:03.414Z,966.89
2018-05-24T04:29:03.401Z,966.88
2018-05-24T04:30:11.604Z,966.88
2018-05-24T04:31:56.400Z,966.82
2018-05-24T04:32:56.287Z,966.80
2018-05-24T04:34:49.381Z,966.75
2018-05-24T04:35:49.342Z,966.80
2018-05-24T04:37:42.225Z,966.91
2018-05-24T04:38:42.190Z,966.89
2018-05-24T04:40:35.168Z,966.88
2018-05-24T04:41:35.331Z,966.87
2018-05-24T04:43:28.080Z,966.91
2018-05-24T04:44:28.024Z,966.86
2018-05-24T04:46:22.367Z,966.86
2018-05-24T04:47:29.523Z,966.90
2018-05-24T04:49:15.938Z,966.88
2018-05-24T04:50:15.741Z,966.86
2018-05-24T04:51:15.815Z,966.86
2018-05-24T04:52:15.813Z,966.90
2018-05-24T04:53:15.772Z,966.88
2018-05-24T04:54:15.742Z,966.86
2018-05-24T04:55:15.744Z,966.87
2018-05-24T04:56:15.741Z,966.88
2018-05-24T04:57:15.736Z,966.88
2018-05-24T04:58:15.733Z,966.87
2018-05-24T04:59:15.745Z,966.89
2018-05-24T05:00:15.736Z,966.91
2018-05-24T05:01:23.263Z,966.93
2018-05-24T05:03:10.717Z,966.97
2018-05-24T05:04:09.147Z,967.01
2018-05-24T05:05:09.226Z,967.02
2018-05-24T05:06:09.153Z,967.03
2018-05-24T05:07:09.167Z,966.99
2018-05-24T05:08:09.165Z,967.04
2018-05-24T05:09:09.155Z,967.05
2018-05-24T05:10:09.160Z,966.99
2018-05-24T05:11:09.155Z,967.08
2018-05-24T05:12:09.158Z,967.06
2018-05-24T05:13:09.158Z,967.07
2018-05-24T05:14:09.185Z,967.08
2018-05-24T05:15:09.160Z,967.11
2018-05-24T05:16:09.162Z,967.11
2018-05-24T05:17:09.166Z,967.09
2018-05-24T05:18:09.164Z,967.10
2018-05-24T05:19:09.168Z,967.08
2018-05-24T05:20:09.167Z,967.12
2018-05-24T05:21:09.172Z,967.09
2018-05-24T05:22:09.173Z,967.12
2018-05-24T05:23:09.204Z,967.11
2018-05-24T05:24:09.175Z,967.10
2018-05-24T05:25:09.217Z,967.11
2018-05-24T05:26:09.194Z,967.06
2018-05-24T05:27:09.184Z,967.09
2018-05-24T05:28:09.180Z,967.08
2018-05-24T05:29:09.208Z,967.12
2018-05-24T05:30:09.186Z,967.14
2018-05-24T05:31:09.185Z,967.14
2018-05-24T05:32:09.191Z,967.16
2018-05-24T05:33:09.192Z,967.16
2018-05-24T05:34:09.197Z,967.13
2018-05-24T05:35:09.193Z,967.15
2018-05-24T05:36:09.198Z,967.10
2018-05-24T05:37:09.191Z,967.08
2018-05-24T05:38:09.204Z,967.08
2018-05-24T05:39:09.206Z,967.08
2018-05-24T05:40:09.201Z,967.12
2018-05-24T05:41:09.200Z,967.16
2018-05-24T05:42:09.210Z,967.10
2018-05-24T05:43:09.206Z,967.15
2018-05-24T05:44:09.225Z,967.10
2018-05-24T05:45:09.234Z,967.15
2018-05-24T05:46:09.263Z,967.10
2018-05-24T05:47:09.214Z,967.09
2018-05-24T05:48:09.224Z,967.11
2018-05-24T05:49:09.255Z,967.08
2018-05-24T05:50:09.253Z,967.11
2018-05-24T05:51:09.220Z,967.11
2018-05-24T05:52:09.282Z,967.10
2018-05-24T05:53:09.221Z,967.10
2018-05-24T05:54:09.223Z,967.09
2018-05-24T05:55:09.230Z,967.10
2018-05-24T05:56:09.230Z,967.10
2018-05-24T05:57:09.249Z,967.13
2018-05-24T05:58:09.228Z,967.14
2018-05-24T05:59:09.291Z,967.12
2018-05-24T06:00:09.235Z,967.13
2018-05-24T06:01:09.236Z,967.13
2018-05-24T06:02:09.235Z,967.18
2018-05-24T06:03:09.240Z,967.13
2018-05-24T06:04:09.240Z,967.16
2018-05-24T06:05:09.238Z,967.16
2018-05-24T06:06:09.244Z,967.19
2018-05-24T06:07:09.268Z,967.17
2018-05-24T06:08:09.243Z,967.21
2018-05-24T06:09:09.247Z,967.24
2018-05-24T06:10:09.247Z,967.22
2018-05-24T06:11:09.250Z,967.27
2018-05-24T06:12:09.293Z,967.22
2018-05-24T06:13:09.253Z,967.28
2018-05-24T06:14:09.254Z,967.26
2018-05-24T06:15:09.253Z,967.25
2018-05-24T06:16:09.256Z,967.29
2018-05-24T06:17:09.258Z,967.26
2018-05-24T06:18:09.260Z,967.31
2018-05-24T06:19:09.268Z,967.26
2018-05-24T06:20:09.263Z,967.28
2018-05-24T06:21:09.265Z,967.23
2018-05-24T06:22:09.273Z,967.28
2018-05-24T06:23:09.268Z,967.27
2018-05-24T06:24:09.276Z,967.27
2018-05-24T06:25:09.295Z,967.28
2018-05-24T06:26:09.290Z,967.25
2018-05-24T06:27:09.370Z,967.26
2018-05-24T06:28:09.329Z,967.27
2018-05-24T06:29:09.305Z,967.27
2018-05-24T06:30:09.284Z,967.25
2018-05-24T06:31:09.285Z,967.27
2018-05-24T06:32:09.281Z,967.24
2018-05-24T06:33:09.313Z,967.29
2018-05-24T06:34:09.285Z,967.30
2018-05-24T06:35:09.284Z,967.32
2018-05-24T06:36:09.284Z,967.34
2018-05-24T06:37:09.302Z,967.34
2018-05-24T06:38:09.292Z,967.34
2018-05-24T06:39:09.299Z,967.35
2018-05-24T06:40:09.292Z,967.38
2018-05-24T06:41:09.296Z,967.36
2018-05-24T06:42:09.298Z,967.36
2018-05-24T06:43:09.315Z,967.36
2018-05-24T06:44:09.304Z,967.46
2018-05-24T06:45:09.300Z,967.44
2018-05-24T06:46:09.320Z,967.45
2018-05-24T06:47:09.309Z,967.49
2018-05-24T06:48:09.365Z,967.52
2018-05-24T06:49:09.306Z,967.51
2018-05-24T06:50:09.338Z,967.51
2018-05-24T06:51:09.327Z,967.54
2018-05-24T06:52:09.311Z,967.56
2018-05-24T06:53:09.317Z,967.58
2018-05-24T06:54:09.320Z,967.54
2018-05-24T06:55:09.333Z,967.56
2018-05-24T06:56:09.323Z,967.60
2018-05-24T06:57:09.324Z,967.61
2018-05-24T06:58:09.328Z,967.57
2018-05-24T06:59:09.323Z,967.53
2018-05-24T07:00:09.353Z,967.53
2018-05-24T07:01:09.332Z,967.52
2018-05-24T07:02:09.345Z,967.56
2018-05-24T07:03:09.366Z,967.52
2018-05-24T07:04:09.336Z,967.53
2018-05-24T07:05:09.374Z,967.50
2018-05-24T07:06:09.362Z,967.55
2018-05-24T07:07:09.369Z,967.54
2018-05-24T07:08:09.343Z,967.53
2018-05-24T07:09:09.406Z,967.49
2018-05-24T07:10:09.341Z,967.51
2018-05-24T07:11:09.425Z,967.53
2018-05-24T07:12:09.376Z,967.51
2018-05-24T07:13:09.388Z,967.52
2018-05-24T07:14:09.412Z,967.54
2018-05-24T07:15:09.354Z,967.62
2018-05-24T07:16:09.356Z,967.56
2018-05-24T07:17:09.346Z,967.56
2018-05-24T07:18:09.378Z,967.60
2018-05-24T07:19:09.388Z,967.58
2018-05-24T07:20:09.359Z,967.59
2018-05-24T07:21:09.357Z,967.59
2018-05-24T07:22:09.359Z,967.62
2018-05-24T07:23:09.359Z,967.63
2018-05-24T07:24:09.361Z,967.62
2018-05-24T07:25:09.357Z,967.63
2018-05-24T07:26:09.362Z,967.66
2018-05-24T07:27:09.386Z,967.58
2018-05-24T07:28:09.365Z,967.59
2018-05-24T07:29:10.300Z,967.56
2018-05-24T07:30:10.412Z,967.56
2018-05-24T07:31:09.607Z,967.52
2018-05-24T07:32:10.202Z,967.46
2018-05-24T07:33:14.578Z,967.46
2018-05-24T07:34:09.457Z,967.44
2018-05-24T07:35:09.412Z,967.41
2018-05-24T07:36:09.467Z,967.37
2018-05-24T07:37:09.439Z,967.29
2018-05-24T07:38:09.416Z,967.21
2018-05-24T07:39:09.425Z,967.22
2018-05-24T07:40:09.570Z,967.24
2018-05-24T07:41:11.285Z,967.28
2018-05-24T07:42:16.440Z,967.33
2018-05-24T07:43:10.304Z,967.39
2018-05-24T07:44:09.389Z,967.48
2018-05-24T07:45:09.629Z,967.45
2018-05-24T07:46:16.679Z,967.52
2018-05-24T07:48:04.161Z,967.59
2018-05-24T07:49:12.072Z,967.61
2018-05-24T07:53:05.932Z,967.41
2018-05-24T07:54:04.346Z,967.40
2018-05-24T07:55:04.419Z,967.30
2018-05-24T07:56:04.447Z,967.37
2018-05-24T07:57:04.384Z,967.40
2018-05-24T07:58:06.954Z,967.43
2018-05-24T07:59:04.404Z,967.40
2018-05-24T08:00:05.519Z,967.42
2018-05-24T08:01:07.192Z,967.45
2018-05-24T08:02:06.136Z,967.47
2018-05-24T08:03:04.525Z,967.51
2018-05-24T08:04:05.906Z,967.46
2018-05-24T08:05:04.475Z,967.46
2018-05-24T08:06:07.057Z,967.47
2018-05-24T08:07:05.871Z,967.47
2018-05-24T08:08:06.262Z,967.53
2018-05-24T08:09:04.528Z,967.54
2018-05-24T08:10:07.039Z,967.54
2018-05-24T08:11:05.997Z,967.55
2018-05-24T08:12:04.450Z,967.50
2018-05-24T08:13:04.381Z,967.46
2018-05-24T08:14:04.375Z,967.40
2018-05-24T08:15:04.369Z,967.41
2018-05-24T08:16:05.850Z,967.40
2018-05-24T08:17:04.597Z,967.40
2018-05-24T08:18:04.399Z,967.38
2018-05-24T08:19:04.376Z,967.41
2018-05-24T08:20:04.438Z,967.41
2018-05-24T08:21:08.242Z,967.43
2018-05-24T08:22:06.275Z,967.44
2018-05-24T08:23:04.439Z,967.45
2018-05-24T08:24:05.904Z,967.47
2018-05-24T08:25:04.370Z,967.45
2018-05-24T08:26:04.397Z,967.41
2018-05-24T08:27:04.365Z,967.43
2018-05-24T08:28:04.380Z,967.37
2018-05-24T08:29:04.359Z,967.34
2018-05-24T08:30:04.378Z,967.40
2018-05-24T08:31:04.366Z,967.36
2018-05-24T08:32:04.363Z,967.39
2018-05-24T08:33:04.361Z,967.40
2018-05-24T08:34:04.362Z,967.37
2018-05-24T08:35:04.503Z,967.37
2018-05-24T08:36:04.446Z,967.42
2018-05-24T08:37:04.953Z,967.40
2018-05-24T08:38:04.544Z,967.42
2018-05-24T08:39:13.926Z,967.43
2018-05-24T08:40:57.402Z,967.43
2018-05-24T08:41:57.380Z,967.45
2018-05-24T08:43:50.797Z,967.48
2018-05-24T08:44:51.282Z,967.48
2018-05-24T08:45:50.823Z,967.47
2018-05-24T08:46:50.718Z,967.50
2018-05-24T08:47:50.674Z,967.51
2018-05-24T08:48:50.673Z,967.45
2018-05-24T08:49:50.655Z,967.45
2018-05-24T08:50:50.674Z,967.47
2018-05-24T08:51:50.725Z,967.46
2018-05-24T08:52:50.665Z,967.50
2018-05-24T08:53:50.692Z,967.53
2018-05-24T08:54:50.676Z,967.48
2018-05-24T08:55:50.681Z,967.51
2018-05-24T08:56:50.678Z,967.47
2018-05-24T08:57:50.704Z,967.46
2018-05-24T08:58:50.693Z,967.54
2018-05-24T08:59:50.721Z,967.48
2018-05-24T09:00:50.682Z,967.52
2018-05-24T09:01:50.680Z,967.50
2018-05-24T09:02:50.688Z,967.51
2018-05-24T09:03:50.797Z,967.50
2018-05-24T09:04:51.738Z,967.55
2018-05-24T09:06:01.697Z,967.52
2018-05-24T09:08:02.815Z,967.55
2018-05-24T09:09:02.778Z,967.57
2018-05-24T09:10:01.990Z,967.58
2018-05-24T09:11:01.960Z,967.58
2018-05-24T09:12:02.012Z,967.59
2018-05-24T09:13:02.009Z,967.61
2018-05-24T09:14:01.958Z,967.58
2018-05-24T09:15:01.982Z,967.56
2018-05-24T09:16:01.974Z,967.57
2018-05-24T09:17:02.000Z,967.57
2018-05-24T09:18:01.974Z,967.55
2018-05-24T09:19:02.046Z,967.57
2018-05-24T09:20:02.023Z,967.61
2018-05-24T09:21:02.012Z,967.57
2018-05-24T09:22:01.964Z,967.57
2018-05-24T09:23:01.969Z,967.67
2018-05-24T09:24:02.045Z,967.68
2018-05-24T09:25:01.986Z,967.72
2018-05-24T09:26:02.005Z,967.71
2018-05-24T09:27:02.006Z,967.68
2018-05-24T09:28:10.172Z,967.68
2018-05-24T09:30:15.686Z,967.65
2018-05-24T09:31:15.612Z,967.60
2018-05-24T09:32:15.752Z,967.62
2018-05-24T09:33:15.955Z,967.61
2018-05-24T09:34:17.798Z,967.68
2018-05-24T09:35:17.930Z,967.65
2018-05-24T09:36:15.699Z,967.68
2018-05-24T09:37:15.711Z,967.68
2018-05-24T09:38:21.931Z,967.65
2018-05-24T09:39:19.144Z,967.63
2018-05-24T09:40:38.012Z,967.64
2018-05-24T09:42:44.729Z,967.66
2018-05-24T09:43:44.943Z,967.63
2018-05-24T09:44:42.916Z,967.68
2018-05-24T09:45:53.822Z,967.66
2018-05-24T09:48:38.292Z,967.67
2018-05-24T09:51:07.145Z,967.67
2018-05-24T09:52:07.759Z,967.71
2018-05-24T09:53:06.967Z,967.67
2018-05-24T09:54:16.164Z,967.67
2018-05-24T09:56:50.090Z,967.67
2018-05-24T09:57:51.023Z,967.67
2018-05-24T09:59:21.119Z,967.61
2018-05-24T10:00:50.590Z,967.61
2018-05-24T10:01:42.738Z,967.58
2018-05-24T10:06:47.830Z,967.56
2018-05-24T10:07:29.605Z,967.48
2018-05-24T10:09:44.505Z,967.54
2018-05-24T10:10:43.847Z,967.49
2018-05-24T10:12:51.655Z,967.47
2018-05-24T10:13:51.700Z,967.46
2018-05-24T10:16:14.599Z,967.41
2018-05-24T10:17:14.512Z,967.39
2018-05-24T10:19:16.064Z,967.40
2018-05-24T10:20:07.856Z,967.44
2018-05-24T10:22:01.479Z,967.48
2018-05-24T10:23:00.708Z,967.46
2018-05-24T10:24:00.777Z,967.45
2018-05-24T10:25:13.326Z,967.42
2018-05-24T10:26:03.310Z,967.43
2018-05-24T10:27:00.842Z,967.46
2018-05-24T10:28:10.916Z,967.44
2018-05-24T10:29:00.687Z,967.46
2018-05-24T10:30:00.801Z,967.45
2018-05-24T10:31:00.808Z,967.47
2018-05-24T10:32:02.340Z,967.46
2018-05-24T10:33:00.853Z,967.41
2018-05-24T10:34:00.754Z,967.39
2018-05-24T10:35:00.790Z,967.37
2018-05-24T10:36:00.796Z,967.36
2018-05-24T10:37:00.742Z,967.41
2018-05-24T10:38:00.828Z,967.41
2018-05-24T10:39:00.732Z,967.39
2018-05-24T10:40:00.943Z,967.40
2018-05-24T10:41:00.974Z,967.39
2018-05-24T10:42:02.612Z,967.35
2018-05-24T10:43:02.441Z,967.38
2018-05-24T10:44:02.321Z,967.35
2018-05-24T10:45:00.763Z,967.35
2018-05-24T10:46:00.876Z,967.35
2018-05-24T10:47:01.943Z,967.35
2018-05-24T10:48:01.840Z,967.35
2018-05-24T10:49:00.860Z,967.33
2018-05-24T10:50:04.386Z,967.32
2018-05-24T10:51:00.968Z,967.31
2018-05-24T10:52:00.830Z,967.34
2018-05-24T10:53:00.737Z,967.33
2018-05-24T10:54:03.307Z,967.33
2018-05-24T10:55:03.469Z,967.26
2018-05-24T10:56:03.538Z,967.28
2018-05-24T10:57:00.771Z,967.22
2018-05-24T10:58:00.768Z,967.22
2018-05-24T10:59:02.312Z,967.26
2018-05-24T11:00:00.878Z,967.22
2018-05-24T11:01:00.794Z,967.18
2018-05-24T11:02:02.748Z,967.16
2018-05-24T11:03:00.800Z,967.16
2018-05-24T11:04:00.759Z,967.13
2018-05-24T11:05:00.861Z,967.12
2018-05-24T11:06:00.809Z,967.12
2018-05-24T11:07:00.764Z,967.12
2018-05-24T11:08:00.767Z,967.16
2018-05-24T11:09:00.766Z,967.15
2018-05-24T11:10:00.975Z,967.12
2018-05-24T11:11:01.785Z,967.14
2018-05-24T11:12:00.838Z,967.12
2018-05-24T11:13:00.774Z,967.12
2018-05-24T11:14:00.782Z,967.12
2018-05-24T11:15:00.869Z,967.16
2018-05-24T11:16:00.785Z,967.17
2018-05-24T11:17:00.813Z,967.14
2018-05-24T11:18:00.789Z,967.14
2018-05-24T11:19:00.799Z,967.11
2018-05-24T11:20:00.829Z,967.07
2018-05-24T11:21:02.793Z,967.08
2018-05-24T11:22:00.833Z,967.08
2018-05-24T11:23:00.813Z,967.06
2018-05-24T11:24:00.840Z,967.06
2018-05-24T11:25:00.825Z,967.02
2018-05-24T11:26:00.805Z,967.03
2018-05-24T11:27:00.812Z,967.00
2018-05-24T11:28:00.808Z,966.98
2018-05-24T11:29:00.823Z,966.97
2018-05-24T11:30:00.816Z,966.95
2018-05-24T11:31:00.843Z,966.91
2018-05-24T11:32:02.876Z,966.93
2018-05-24T11:33:00.821Z,966.92
2018-05-24T11:34:00.824Z,966.92
2018-05-24T11:35:00.825Z,966.89
2018-05-24T11:36:00.827Z,966.87
2018-05-24T11:37:00.847Z,966.90
2018-05-24T11:38:00.834Z,966.88
2018-05-24T11:39:00.836Z,966.89
2018-05-24T11:40:00.833Z,966.88
2018-05-24T11:41:00.866Z,966.90
2018-05-24T11:42:00.836Z,966.92
2018-05-24T11:43:00.873Z,966.88
2018-05-24T11:44:00.860Z,966.94
2018-05-24T11:45:00.861Z,966.86
2018-05-24T11:46:00.845Z,966.84
2018-05-24T11:47:00.884Z,966.77
2018-05-24T11:48:00.888Z,966.78
2018-05-24T11:49:00.860Z,966.80
2018-05-24T11:50:00.857Z,966.82
2018-05-24T11:51:00.862Z,966.78
2018-05-24T11:52:00.964Z,966.82
2018-05-24T11:53:00.866Z,966.79
2018-05-24T11:54:00.867Z,966.82
2018-05-24T11:55:00.869Z,966.80
2018-05-24T11:56:00.897Z,966.81
2018-05-24T11:57:00.874Z,966.81
2018-05-24T11:58:00.873Z,966.81
2018-05-24T11:59:00.877Z,966.80
2018-05-24T12:00:00.885Z,966.84
2018-05-24T12:01:00.888Z,966.84
2018-05-24T12:02:00.879Z,966.82
2018-05-24T12:03:00.891Z,966.82
2018-05-24T12:04:00.886Z,966.81
2018-05-24T12:05:00.889Z,966.80
2018-05-24T12:06:00.891Z,966.80
2018-05-24T12:07:00.975Z,966.83
2018-05-24T12:08:00.897Z,966.80
2018-05-24T12:09:00.898Z,966.79
2018-05-24T12:10:00.898Z,966.72
2018-05-24T12:11:01.938Z,966.76
2018-05-24T12:12:00.906Z,966.74
2018-05-24T12:13:00.954Z,966.73
2018-05-24T12:14:00.912Z,966.76
2018-05-24T12:15:01.469Z,966.70
2018-05-24T12:16:01.004Z,966.69
2018-05-24T12:17:01.833Z,966.74
2018-05-24T12:18:01.031Z,966.67
2018-05-24T12:19:00.953Z,966.68
2018-05-24T12:20:00.967Z,966.71
2018-05-24T12:21:00.992Z,966.68
2018-05-24T12:22:00.953Z,966.64
2018-05-24T12:23:01.142Z,966.65
2018-05-24T12:24:01.066Z,966.65
2018-05-24T12:25:09.352Z,966.63
2018-05-24T12:27:05.983Z,966.63
2018-05-24T12:27:54.501Z,966.66
2018-05-24T12:28:55.573Z,966.58
2018-05-24T12:29:54.449Z,966.60
2018-05-24T12:30:54.381Z,966.59
2018-05-24T12:31:54.376Z,966.62
2018-05-24T12:32:54.383Z,966.62
2018-05-24T12:33:54.382Z,966.60
2018-05-24T12:34:54.463Z,966.62
2018-05-24T12:35:55.366Z,966.61
2018-05-24T12:36:54.390Z,966.59
2018-05-24T12:37:54.508Z,966.62
2018-05-24T12:38:54.507Z,966.64
2018-05-24T12:39:54.409Z,966.67
2018-05-24T12:40:54.481Z,966.62
2018-05-24T12:41:57.491Z,966.63
2018-05-24T12:42:54.492Z,966.61
2018-05-24T12:43:54.491Z,966.61
2018-05-24T12:44:54.902Z,966.64
2018-05-24T12:45:54.465Z,966.62
2018-05-24T12:46:54.427Z,966.60
2018-05-24T12:47:54.414Z,966.58
2018-05-24T12:48:54.531Z,966.62
2018-05-24T12:49:54.427Z,966.64
2018-05-24T12:50:54.419Z,966.58
2018-05-24T12:51:54.424Z,966.64
2018-05-24T12:52:54.511Z,966.59
2018-05-24T12:53:54.489Z,966.59
2018-05-24T12:54:54.430Z,966.60
2018-05-24T12:55:54.433Z,966.57
2018-05-24T12:56:54.436Z,966.58
2018-05-24T12:57:54.456Z,966.58
2018-05-24T12:58:54.437Z,966.64
2018-05-24T12:59:54.443Z,966.59
2018-05-24T13:00:54.442Z,966.61